• Join FlightAware (Why Join?)
  • Login
  • US Flag 
06:23AM EDT


 

Airport Tracker/Info


-or-


 

Live Flight TrackerFlight Track Log ✈ N2317S ✈ 11-Oct-2013 ✈ KBTV - KBTV

Flight Track Log - Related Links

Times and Time Zones

All times are in EDT time to prevent confusion due to time zone crossing. See the N2317S flight status page for this flight to view local times or setup timezone preferences in your user account.

Time Position Orientation Groundspeed Altitude Reporting Facility
EDT Latitude Longitude Course Direction KTS MPH feet Rate Location/Type
08:47AM 44.4719 -73.1533 304° West  Level Estimated
08:48AM 44.4754 -73.1608 304° West  Level FlightAware Approximate
08:49AM 44.4790 -73.1683 304° West  Level FlightAware Approximate
08:50AM 44.4825 -73.1758 304° West  Level FlightAware Approximate
08:51AM 44.4861 -73.1833 304° West  Level FlightAware Approximate
08:52AM 44.4825 -73.1758 312° West  Level Estimated
08:53AM 44.4866 -73.1828 309° West  Level FlightAware Approximate
08:54AM 44.4906 -73.1898 309° West  Level FlightAware Approximate
08:55AM 44.4947 -73.1968 309° West  Level FlightAware Approximate
08:56AM 44.4987 -73.2038 309° West  Level FlightAware Approximate
08:57AM 44.5028 -73.2108 309° West  Level FlightAware Approximate
08:58AM 44.5068 -73.2178 309° West  Level FlightAware Approximate
08:59AM 44.5108 -73.2248 309° West  Level FlightAware Approximate
09:00AM 44.5149 -73.2318 309° West  Level FlightAware Approximate
09:01AM 44.5189 -73.2388 309° West  Level FlightAware Approximate
09:02AM 44.5230 -73.2458 309° West  Level FlightAware Approximate
09:03AM 44.5270 -73.2528 309° West  Level FlightAware Approximate
09:04AM 44.5311 -73.2598 309° West  Level FlightAware Approximate
09:05AM 44.5351 -73.2668 309° West  Level FlightAware Approximate
09:06AM 44.5391 -73.2738 309° West  Level FlightAware Approximate
09:07AM 44.5432 -73.2808 309° West  Level FlightAware Approximate
09:08AM 44.5472 -73.2878 309° West  Level FlightAware Approximate
09:09AM 44.5513 -73.2948 309° West  Level FlightAware Approximate
09:10AM 44.5553 -73.3018 309° West  Level FlightAware Approximate
09:11AM 44.5593 -73.3089 309° West  Level FlightAware Approximate
09:12AM 44.5634 -73.3159 309° West  Level FlightAware Approximate
09:13AM 44.5674 -73.3229 309° West  Level FlightAware Approximate
09:14AM 44.5714 -73.3299 309° West  Level FlightAware Approximate
09:15AM 44.5755 -73.3369 309° West  Level FlightAware Approximate
09:16AM 44.5795 -73.3439 309° West  Level FlightAware Approximate
09:17AM 44.5836 -73.3510 309° West  Level FlightAware Approximate
09:18AM 44.5876 -73.3580 309° West  Level FlightAware Approximate
09:19AM 44.5836 -73.3509 129° Southeast  Level Estimated
09:20AM 44.5810 -73.3427 114° Southeast  Level FlightAware Approximate
09:21AM 44.5836 -73.3509 294° West  Level FlightAware Approximate
09:22AM 44.5810 -73.3427 114° Southeast  Level FlightAware Approximate
09:23AM 44.5836 -73.3509 294° West  Level FlightAware Approximate
09:24AM 44.5810 -73.3427 114° Southeast  Level FlightAware Approximate
09:25AM 44.5836 -73.3509 294° West  Level FlightAware Approximate
09:26AM 44.5810 -73.3427 114° Southeast  Level FlightAware Approximate
09:27AM 44.5836 -73.3509 294° West  Level FlightAware Approximate
09:28AM 44.5810 -73.3427 114° Southeast  Level FlightAware Approximate
09:29AM 44.5836 -73.3509 294° West  Level FlightAware Approximate
09:30AM 44.5810 -73.3427 114° Southeast  Level FlightAware Approximate
09:31AM 44.5836 -73.3509 294° West  Level FlightAware Approximate
09:32AM 44.5810 -73.3427 114° Southeast  Level FlightAware Approximate
09:33AM 44.5836 -73.3509 294° West  Level FlightAware Approximate
09:34AM 44.5810 -73.3427 114° Southeast  Level FlightAware Approximate
09:35AM 44.5836 -73.3509 294° West  Level FlightAware Approximate
09:36AM 44.5797 -73.3442 131° Southeast  Level FlightAware Approximate
09:37AM 44.5755 -73.3374 131° Southeast  Level FlightAware Approximate
09:38AM 44.5713 -73.3306 131° Southeast  Level FlightAware Approximate
09:39AM 44.5670 -73.3239 131° Southeast  Level FlightAware Approximate
09:40AM 44.5628 -73.3171 131° Southeast  Level FlightAware Approximate
09:41AM 44.5586 -73.3103 131° Southeast  Level FlightAware Approximate
09:42AM 44.5543 -73.3035 131° Southeast  Level FlightAware Approximate
09:43AM 44.5501 -73.2967 131° Southeast  Level FlightAware Approximate
09:44AM 44.5458 -73.2899 131° Southeast  Level FlightAware Approximate
09:45AM 44.5416 -73.2832 131° Southeast  Level FlightAware Approximate
09:46AM 44.5374 -73.2764 131° Southeast  Level FlightAware Approximate
09:47AM 44.5331 -73.2696 131° Southeast  Level FlightAware Approximate
09:48AM 44.5289 -73.2628 131° Southeast  Level FlightAware Approximate
09:49AM 44.5246 -73.2561 131° Southeast  Level FlightAware Approximate
09:50AM 44.5204 -73.2493 131° Southeast  Level FlightAware Approximate
09:51AM 44.5162 -73.2425 131° Southeast  Level FlightAware Approximate
09:52AM 44.5119 -73.2357 131° Southeast  Level FlightAware Approximate
09:53AM 44.5077 -73.2290 131° Southeast  Level FlightAware Approximate
09:54AM 44.5034 -73.2222 131° Southeast  Level FlightAware Approximate
09:55AM 44.4993 -73.2153 125° Southeast  Level FlightAware Approximate
09:56AM 44.4956 -73.2079 125° Southeast  Level FlightAware Approximate
09:57AM 44.4919 -73.2005 125° Southeast  Level FlightAware Approximate
09:58AM 44.4883 -73.1932 125° Southeast  Level FlightAware Approximate
09:59AM 44.4846 -73.1858 125° Southeast  Level FlightAware Approximate
10:00AM 44.4809 -73.1784 125° Southeast  Level FlightAware Approximate
10:01AM 44.4772 -73.1710 125° Southeast  Level FlightAware Approximate
10:02AM 44.4735 -73.1637 125° Southeast  Level FlightAware Approximate
10:03AM 44.4698 -73.1563 125° Southeast  Level FlightAware Approximate
10:04AM 44.4667 -73.1500 125° Southeast  Level FlightAware Approximate
10:05AM 44.4719 -73.1533 125° Southeast  Level Estimated
10:06AM 44.4667 -73.1500 125° Southeast  Level FlightAware Approximate
10:07AM 44.4719 -73.1533 125° Southeast  Level Estimated
10:08AM 44.4667 -73.1500 125° Southeast  Level FlightAware Approximate
10:09AM 44.4719 -73.1533 125° Southeast  Level Estimated
10:10AM 44.4667 -73.1500 125° Southeast  Level FlightAware Approximate
10:11AM 44.4719 -73.1533 125° Southeast  Level Estimated
10:12AM 44.4667 -73.1500 125° Southeast  Level FlightAware Approximate
10:13AM 44.4719 -73.1533 125° Southeast  Level Estimated
10:14AM 44.4667 -73.1500 125° Southeast  Level FlightAware Approximate
10:15AM 44.4719 -73.1533 125° Southeast  Level Estimated
10:16AM 44.4667 -73.1500 125° Southeast  Level FlightAware Approximate
10:17AM 44.4719 -73.1533 125° Southeast  Level Estimated
10:18AM 44.4667 -73.1500 125° Southeast  Level FlightAware Approximate
10:19AM 44.4719 -73.1533 125° Southeast  Level Estimated
10:20AM 44.4667 -73.1500 125° Southeast  Level FlightAware Approximate
10:21AM 44.4719 -73.1533 125° Southeast  Level Estimated
10:22AM 44.4667 -73.1500 125° Southeast  Level FlightAware Approximate
10:23AM 44.4719 -73.1533 125° Southeast  Level Estimated
10:24AM 44.4667 -73.1500 125° Southeast  Level FlightAware Approximate
10:25AM 44.4719 -73.1533 125° Southeast  Level Estimated
10:26AM 44.4667 -73.1500 125° Southeast  Level FlightAware Approximate